EDMAEDDN

Guest
Details From EDMA - Augsburg
To EDDN - Nurnberg
Flight Number -
Tags generated
Created
Modified
Stats Distance 65 nm / 120 km
Max Altitude 4,000 ft / 1,219 m
Waypoints 3
Social Downloads 4
Likes 0
Share VATSIM

Download

Looking for another format? Having issues loading an existing format? Contact us
Advertisement - Login to hide

Notes

Basic altitude profile: - Ascent Rate: 500ft/min - Ascent Speed: 76kts - Cruise Altitude: 700000ft - Cruise Speed: 90kts - Descent Rate: 500ft/min - Descent Speed: 90kts Options: - Use NATs: no - Use PACOTS: no - Use low airways: yes - Use high airways: no

Route

EDMA ERMEL EDDN

ID Type Via Altitude Latitude Longitude Leg Dist Tot Dist Heading (true) Name
O EDMA APT - 0 ft / 0 m 48.42424˚ 10.93428˚ - 0 nm - Augsburg
ERMEL FIX - 4,000 ft / 1,219 m 49.18778˚ 11.04472˚ 46 nm 46 nm 5° / 5° -
O EDDN APT - 0 ft / 0 m 49.49874˚ 11.07758˚ 18 nm 64 nm 4° / 4° Nurnberg

Altitude Profile

Advertisement - Login to hide

EDMA

Details ICAO EDMA (AGB)
Name Augsburg
Region Germany - Civil
Timezone Europe/Berlin (UTC+2.0)
Stats Elevation 1,515 ft / 462 m (AMSL)
Location 48.424245° 10.934277°
Runways 2
Magnetic Variation 3.008° E

METAR

EDMA 250520Z VRB02KT CAVOK 12/12 Q1019

Decode

TAF

Not found

Departure Runways

ID Width Length Bearing (true) Bearing (mag) Surface Threshold Offset Overrun Length
07 98 ft / 30 m 4,186 ft / 1,276 m 71.38° 68.37° Asphalt 0 ft / 0 m 164 ft / 50 m
07L 100 ft / 30 m 3,320 ft / 1,012 m 71.47° 68.46° Grass 0 ft / 0 m 0 ft / 0 m
25 98 ft / 30 m 4,186 ft / 1,276 m 251.39° 248.38° Asphalt 0 ft / 0 m 164 ft / 50 m
25R 100 ft / 30 m 3,320 ft / 1,012 m 251.48° 248.47° Grass 0 ft / 0 m 0 ft / 0 m

EDDN

Details ICAO EDDN (NUE)
Name Nurnberg
Region Germany - Civil
Timezone Europe/Berlin (UTC+2.0)
Stats Elevation 1,045 ft / 319 m (AMSL)
Location 49.498744° 11.077580°
Runways 1
Magnetic Variation 3.075° E

METAR

EDDN 250520Z 12004KT 090V150 9000 NSC 15/14 Q1019 NOSIG

Decode

TAF

TAF EDDN 250500Z 2506/2606 VRB03KT 9999 FEW020 SCT030 TEMPO 2510/2518 05006KT TEMPO 2512/2515 05015G25KT TSRA SCT020 BKN030CB

Decode

Destination Runways

ID Width Length Bearing (true) Bearing (mag) Surface Threshold Offset Overrun Length
10 148 ft / 45 m 8,819 ft / 2,688 m 98.60° 95.53° Asphalt 0 ft / 0 m 0 ft / 0 m
28 148 ft / 45 m 8,819 ft / 2,688 m 278.63° 275.56° Asphalt 0 ft / 0 m 0 ft / 0 m

Approach Navaids

Runway Type Ident Frequency Range Bearing (true) Bearing (mag) Slope Elevation
10 Localiser INUE 111.30 MHz 18 nm / 33 km 98.64° 95.56° - 1,046 ft / 319 m (AMSL)
10 Glidescope INUE 111.30 MHz 10 nm / 19 km 98.61° 95.54° 3.00° 1,022 ft / 312 m (AMSL)
28 Localiser INUW 109.10 MHz 23 nm / 43 km 278.59° 275.51° - 1,122 ft / 342 m (AMSL)
28 Glidescope INUW 109.10 MHz 10 nm / 19 km 278.62° 275.54° 3.00° 1,046 ft / 319 m (AMSL)

Popular Alternatives